Map

Track Data

SID SEASON NUMBER BASIN SUBBASIN NAME ISO_TIME NATURE LAT LON WMO_WIND WMO_PRES WMO_AGENCY TRACK_TYPE DIST2LAND LANDFALL IFLAG USA_AGENCY USA_ATCF_ID USA_LAT USA_LON USA_RECORD USA_STATUS USA_WIND USA_PRES USA_SSHS USA_R34_NE USA_R34_SE USA_R34_SW USA_R34_NW USA_R50_NE USA_R50_SE USA_R50_SW USA_R50_NW USA_R64_NE USA_R64_SE USA_R64_SW USA_R64_NW USA_POCI USA_ROCI USA_RMW USA_EYE TOKYO_LAT TOKYO_LON TOKYO_GRADE TOKYO_WIND TOKYO_PRES TOKYO_R50_DIR TOKYO_R50_LONG TOKYO_R50_SHORT TOKYO_R30_DIR TOKYO_R30_LONG TOKYO_R30_SHORT TOKYO_LAND CMA_LAT CMA_LON CMA_CAT CMA_WIND CMA_PRES HKO_LAT HKO_LON HKO_CAT HKO_WIND HKO_PRES NEWDELHI_LAT NEWDELHI_LON NEWDELHI_GRADE NEWDELHI_WIND NEWDELHI_PRES NEWDELHI_CI NEWDELHI_DP NEWDELHI_POCI REUNION_LAT REUNION_LON REUNION_TYPE REUNION_WIND REUNION_PRES REUNION_TNUM REUNION_CI REUNION_RMW REUNION_R34_NE REUNION_R34_SE REUNION_R34_SW REUNION_R34_NW REUNION_R50_NE REUNION_R50_SE REUNION_R50_SW REUNION_R50_NW REUNION_R64_NE REUNION_R64_SE REUNION_R64_SW REUNION_R64_NW BOM_LAT BOM_LON BOM_TYPE BOM_WIND BOM_PRES BOM_TNUM BOM_CI BOM_RMW BOM_R34_NE BOM_R34_SE BOM_R34_SW BOM_R34_NW BOM_R50_NE BOM_R50_SE BOM_R50_SW BOM_R50_NW BOM_R64_NE BOM_R64_SE BOM_R64_SW BOM_R64_NW BOM_ROCI BOM_POCI BOM_EYE BOM_POS_METHOD BOM_PRES_METHOD NADI_LAT NADI_LON NADI_CAT NADI_WIND NADI_PRES WELLINGTON_LAT WELLINGTON_LON WELLINGTON_WIND WELLINGTON_PRES DS824_LAT DS824_LON DS824_STAGE DS824_WIND DS824_PRES TD9636_LAT TD9636_LON TD9636_STAGE TD9636_WIND TD9636_PRES TD9635_LAT TD9635_LON TD9635_WIND TD9635_PRES TD9635_ROCI NEUMANN_LAT NEUMANN_LON NEUMANN_CLASS NEUMANN_WIND NEUMANN_PRES MLC_LAT MLC_LON MLC_CLASS MLC_WIND MLC_PRES USA_GUST BOM_GUST BOM_GUST_PER REUNION_GUST REUNION_GUST_PER USA_SEAHGT USA_SEARAD_NE USA_SEARAD_SE USA_SEARAD_SW USA_SEARAD_NW STORM_SPEED STORM_DIR
1902032S11064 1902 3 SI MM NOT_NAMED 1902-01-31 18:00:00 NR -10.6000 64.3000 main 1276 1249 __________O___ -1 -10.6000 64.3000 7 6 247
1902032S11064 1902 3 SI MM NOT_NAMED 1902-01-31 21:00:00 NR -10.7111 64.0346 main 1249 1228 __________P___ -1 -10.7111 64.0346 7 6 247
1902032S11064 1902 3 SI MM NOT_NAMED 1902-02-01 00:00:00 NR -10.8176 63.7652 main 1228 1202 __________P___ -1 -10.8176 63.7652 7 6 249
1902032S11064 1902 3 SI MM NOT_NAMED 1902-02-01 03:00:00 NR -10.9154 63.4883 main 1202 1176 __________P___ -1 -10.9154 63.4883 7 6 252
1902032S11064 1902 3 SI MM NOT_NAMED 1902-02-01 06:00:00 NR -11.0000 63.2000 main 1176 1150 __________O___ -1 -11.0000 63.2000 7 6 255
1902032S11064 1902 3 SI MM NOT_NAMED 1902-02-01 09:00:00 NR -11.0700 62.8989 main 1150 1135 __________P___ -1 -11.0700 62.8989 7 6 257
1902032S11064 1902 3 SI MM NOT_NAMED 1902-02-01 12:00:00 NR -11.1350 62.5923 main 1135 1111 __________P___ -1 -11.1350 62.5923 7 6 257
1902032S11064 1902 3 SI MM NOT_NAMED 1902-02-01 15:00:00 NR -11.2075 62.2895 main 1111 1087 __________P___ -1 -11.2075 62.2895 7 6 254
1902032S11064 1902 3 SI MM NOT_NAMED 1902-02-01 18:00:00 NR -11.3000 62.0000 main 1087 1063 __________O___ -1 -11.3000 62.0000 7 6 247
1902032S11064 1902 3 SI MM NOT_NAMED 1902-02-01 21:00:00 NR -11.4405 61.7357 main 1063 1034 __________P___ -1 -11.4405 61.7357 7 6 239
1902032S11064 1902 3 SI MM NOT_NAMED 1902-02-02 00:00:00 NR -11.5998 61.4851 main 1034 1005 __________P___ -1 -11.5998 61.4851 7 6 237
1902032S11064 1902 3 SI MM NOT_NAMED 1902-02-02 03:00:00 NR -11.7593 61.2419 main 1001 983 __________P___ -1 -11.7593 61.2419 7 6 238
1902032S11064 1902 3 SI MM NOT_NAMED 1902-02-02 06:00:00 NR -11.9000 61.0000 main 983 965 __________O___ -1 -11.9000 61.0000 7 5 246
1902032S11064 1902 3 SI MM NOT_NAMED 1902-02-02 09:00:00 NR -11.9803 60.7457 main 961 954 __________P___ -1 -11.9803 60.7457 7 5 254
1902032S11064 1902 3 SI MM NOT_NAMED 1902-02-02 12:00:00 NR -12.0424 60.4922 main 954 937 __________P___ -1 -12.0424 60.4922 7 5 255
1902032S11064 1902 3 SI MM NOT_NAMED 1902-02-02 15:00:00 NR -12.1084 60.2426 main 934 917 __________P___ -1 -12.1084 60.2426 7 5 252
1902032S11064 1902 3 SI MM NOT_NAMED 1902-02-02 18:00:00 NR -12.2000 60.0000 main 917 901 __________O___ -1 -12.2000 60.0000 7 5 244
1902032S11064 1902 3 SI MM NOT_NAMED 1902-02-02 21:00:00 NR -12.3299 59.7718 main 901 874 __________P___ -1 -12.3299 59.7718 7 5 237
1902032S11064 1902 3 SI MM NOT_NAMED 1902-02-03 00:00:00 NR -12.4899 59.5498 main 871 845 __________P___ -1 -12.4899 59.5498 7 6 231
1902032S11064 1902 3 SI MM NOT_NAMED 1902-02-03 03:00:00 NR -12.6799 59.3279 main 845 819 __________P___ -1 -12.6799 59.3279 7 6 227
1902032S11064 1902 3 SI MM NOT_NAMED 1902-02-03 06:00:00 NR -12.9000 59.1000 main 819 793 __________O___ -1 -12.9000 59.1000 7 7 226
1902032S11064 1902 3 SI MM NOT_NAMED 1902-02-03 09:00:00 NR -13.1463 58.8411 main 792 755 __________P___ -1 -13.1463 58.8411 7 7 224
1902032S11064 1902 3 SI MM NOT_NAMED 1902-02-03 12:00:00 NR -13.4201 58.5777 main 755 719 __________P___ -1 -13.4201 58.5777 7 8 222
1902032S11064 1902 3 SI MM NOT_NAMED 1902-02-03 15:00:00 NR -13.7088 58.3254 main 719 683 __________P___ -1 -13.7088 58.3254 7 7 219
1902032S11064 1902 3 SI MM NOT_NAMED 1902-02-03 18:00:00 NR -14.0000 58.1000 main 683 660 __________O___ -1 -14.0000 58.1000 7 7 216
1902032S11064 1902 3 SI MM NOT_NAMED 1902-02-03 21:00:00 NR -14.2587 57.9088 main 649 626 __________P___ -1 -14.2587 57.9088 7 6 213
1902032S11064 1902 3 SI MM NOT_NAMED 1902-02-04 00:00:00 NR -14.5199 57.7472 main 626 593 __________P___ -1 -14.5199 57.7472 7 6 208
1902032S11064 1902 3 SI MM NOT_NAMED 1902-02-04 03:00:00 NR -14.7962 57.6120 main 593 559 __________P___ -1 -14.7962 57.6120 7 6 203
1902032S11064 1902 3 SI MM NOT_NAMED 1902-02-04 06:00:00 NR -15.1000 57.5000 main 559 526 __________O___ -1 -15.1000 57.5000 7 7 198
1902032S11064 1902 3 SI MM NOT_NAMED 1902-02-04 09:00:00 NR -15.4422 57.3912 main 526 481 __________P___ -1 -15.4422 57.3912 7 7 195
1902032S11064 1902 3 SI MM NOT_NAMED 1902-02-04 12:00:00 NR -15.8125 57.3050 main 481 437 __________P___ -1 -15.8125 57.3050 7 8 190
1902032S11064 1902 3 SI MM NOT_NAMED 1902-02-04 15:00:00 NR -16.2016 57.2413 main 437 392 __________P___ -1 -16.2016 57.2413 7 8 187
1902032S11064 1902 3 SI MM NOT_NAMED 1902-02-04 18:00:00 NR -16.6000 57.2000 main 392 348 __________O___ -1 -16.6000 57.2000 7 8 186
1902032S11064 1902 3 SI MM NOT_NAMED 1902-02-04 21:00:00 NR -16.9928 57.1582 main 348 304 __________P___ -1 -16.9928 57.1582 7 8 184
1902032S11064 1902 3 SI MM NOT_NAMED 1902-02-05 00:00:00 NR -17.3924 57.1403 main 304 259 __________P___ -1 -17.3924 57.1403 7 8 0
1902032S11064 1902 3 SI MM NOT_NAMED 1902-02-05 03:00:00 NR -17.7959 57.1521 main 259 214 __________P___ -1 -17.7959 57.1521 7 8 176
1902032S11064 1902 3 SI MM NOT_NAMED 1902-02-05 06:00:00 NR -18.2000 57.2000 main 214 169 __________O___ -1 -18.2000 57.2000 7 8 171
1902032S11064 1902 3 SI MM NOT_NAMED 1902-02-05 09:00:00 NR -18.6163 57.2887 main 169 123 __________P___ -1 -18.6163 57.2887 7 9 166
1902032S11064 1902 3 SI MM NOT_NAMED 1902-02-05 12:00:00 NR -19.0300 57.4121 main 123 78 __________P___ -1 -19.0300 57.4121 7 9 163
1902032S11064 1902 3 SI MM NOT_NAMED 1902-02-05 15:00:00 NR -19.4288 57.5544 main 78 33 __________P___ -1 -19.4288 57.5544 7 8 161
1902032S11064 1902 3 SI MM NOT_NAMED 1902-02-05 18:00:00 NR -19.8000 57.7000 main 33 10 __________O___ -1 -19.8000 57.7000 7 8 159
1902032S11064 1902 3 SI MM NOT_NAMED 1902-02-05 21:00:00 NR -20.1350 57.8360 main 10 10 __________P___ -1 -20.1350 57.8360 7 7 159
1902032S11064 1902 3 SI MM NOT_NAMED 1902-02-06 00:00:00 NR -20.4400 57.9625 main 23 23 __________P___ -1 -20.4400 57.9625 7 6 159
1902032S11064 1902 3 SI MM NOT_NAMED 1902-02-06 03:00:00 NR -20.7250 58.0827 main 47 47 __________P___ -1 -20.7250 58.0827 7 6 158
1902032S11064 1902 3 SI MM NOT_NAMED 1902-02-06 06:00:00 NR -21.0000 58.2000 main 76 __________O___ -1 -21.0000 58.2000 7 6 158

About IBTrACS Database

This database is a web-friendly format of International Best Track Archive for Climate Stewardship (IBTrACS), a global best track data archive curated by NOAA dating back to 1842.

Updated: 2021-12-06